createdAt,value
2023-01-02T00:00:43.088Z,73.39
2023-01-02T00:03:09.477Z,73.64
2023-01-02T00:05:36.669Z,73.03
2023-01-02T00:08:02.969Z,73.46
2023-01-02T00:10:29.281Z,73.28
2023-01-02T00:12:55.583Z,73.11
2023-01-02T00:15:21.904Z,73.51
2023-01-02T00:17:48.219Z,73.89
2023-01-02T00:20:14.608Z,73.04
2023-01-02T00:22:40.977Z,72.99
2023-01-02T00:25:07.653Z,73.91
2023-01-02T00:27:33.959Z,72.82
2023-01-02T00:30:00.286Z,73.15
2023-01-02T00:32:26.598Z,73.46
2023-01-02T00:34:52.972Z,72.86
2023-01-02T00:37:19.397Z,73.52
2023-01-02T00:39:45.703Z,73.36
2023-01-02T00:42:11.991Z,73.41
2023-01-02T00:44:38.360Z,73.95
2023-01-02T00:47:04.699Z,73.55
2023-01-02T00:49:31.055Z,73.68
2023-01-02T00:51:57.474Z,73.55
2023-01-02T00:54:23.767Z,73.60
2023-01-02T00:56:50.079Z,73.28
2023-01-02T00:59:16.479Z,73.63
2023-01-02T01:01:42.908Z,73.86
2023-01-02T01:04:09.482Z,73.32
2023-01-02T01:06:35.844Z,72.87
2023-01-02T01:09:02.207Z,73.22
2023-01-02T01:11:28.752Z,72.85
2023-01-02T01:13:55.158Z,72.97
2023-01-02T01:16:21.546Z,72.49
2023-01-02T01:18:48.184Z,72.98
2023-01-02T01:21:20.357Z,72.94
2023-01-02T01:23:54.247Z,72.45
2023-01-02T01:26:21.502Z,72.51
2023-01-02T01:28:47.885Z,72.58
2023-01-02T01:31:16.431Z,71.68
2023-01-02T01:33:44.262Z,70.55
2023-01-02T01:36:10.553Z,71.07
2023-01-02T01:38:37.010Z,71.26
2023-01-02T01:41:04.032Z,71.25
2023-01-02T01:43:44.117Z,70.40
2023-01-02T01:46:29.193Z,70.29
2023-01-02T01:49:09.567Z,70.97
2023-01-02T01:51:41.833Z,71.10
2023-01-02T01:54:14.387Z,70.63
2023-01-02T01:56:47.035Z,70.70
2023-01-02T01:59:14.165Z,71.01
2023-01-02T02:01:42.657Z,70.27
2023-01-02T02:04:11.090Z,70.33
2023-01-02T02:06:38.370Z,69.99
2023-01-02T02:09:14.053Z,70.14
2023-01-02T02:11:40.590Z,70.69
2023-01-02T02:14:07.044Z,69.97
2023-01-02T02:16:54.279Z,70.32
2023-01-02T02:19:46.679Z,69.96
2023-01-02T02:22:15.873Z,69.98
2023-01-02T02:25:23.598Z,69.96
2023-01-02T02:28:24.097Z,69.28
2023-01-02T02:30:57.568Z,68.96
2023-01-02T02:33:48.427Z,69.19
2023-01-02T02:36:36.255Z,69.64
2023-01-02T02:39:44.097Z,70.05
2023-01-02T02:42:47.375Z,69.11
2023-01-02T02:45:31.884Z,70.09
2023-01-02T02:48:09.748Z,70.41
2023-01-02T02:50:48.351Z,69.99
2023-01-02T02:53:20.860Z,70.22
2023-01-02T02:55:52.189Z,70.67
2023-01-02T02:58:19.469Z,70.24
2023-01-02T03:00:45.970Z,70.71
2023-01-02T03:03:20.761Z,70.97
2023-01-02T03:06:18.660Z,70.69
2023-01-02T03:08:49.434Z,71.36
2023-01-02T03:11:16.056Z,71.16
2023-01-02T03:14:07.352Z,70.67
2023-01-02T03:16:40.438Z,70.58
2023-01-02T03:19:11.382Z,71.28
2023-01-02T03:21:51.596Z,70.66
2023-01-02T03:24:21.434Z,70.69
2023-01-02T03:26:55.042Z,71.50
2023-01-02T03:29:28.885Z,71.13
2023-01-02T03:31:56.431Z,70.53
2023-01-02T03:34:28.852Z,71.20
2023-01-02T03:37:01.552Z,70.73
2023-01-02T03:39:31.048Z,71.17
2023-01-02T03:42:02.134Z,70.65
2023-01-02T03:44:37.661Z,71.10
2023-01-02T03:47:13.934Z,71.02
2023-01-02T03:49:44.945Z,71.31
2023-01-02T03:52:11.250Z,71.38
2023-01-02T03:54:38.169Z,70.73
2023-01-02T03:57:17.960Z,70.78
2023-01-02T04:00:09.367Z,70.99
2023-01-02T04:03:02.678Z,70.75
2023-01-02T04:05:53.370Z,70.49
2023-01-02T04:08:28.620Z,70.37
2023-01-02T04:10:58.841Z,71.07
2023-01-02T04:13:34.320Z,70.40
2023-01-02T04:16:03.656Z,71.36
2023-01-02T04:18:35.395Z,70.76
2023-01-02T04:21:07.378Z,70.85
2023-01-02T04:23:51.477Z,70.73
2023-01-02T04:26:23.944Z,70.94
2023-01-02T04:28:50.609Z,70.22
2023-01-02T04:31:42.201Z,71.41
2023-01-02T04:34:12.841Z,70.71
2023-01-02T04:36:40.389Z,70.81
2023-01-02T04:39:06.733Z,70.61
2023-01-02T04:41:34.215Z,70.96
2023-01-02T04:44:01.186Z,70.56
2023-01-02T04:46:28.817Z,70.98
2023-01-02T04:48:55.812Z,70.83
2023-01-02T04:51:23.429Z,71.24
2023-01-02T04:53:50.996Z,70.37
2023-01-02T04:56:17.822Z,70.38
2023-01-02T04:58:45.475Z,70.74
2023-01-02T05:01:14.701Z,71.22
2023-01-02T05:03:42.593Z,70.71
2023-01-02T05:06:09.653Z,71.75
2023-01-02T05:08:36.944Z,71.48
2023-01-02T05:11:12.876Z,71.42
2023-01-02T05:13:39.393Z,71.31
2023-01-02T05:16:06.398Z,71.87
2023-01-02T05:18:32.764Z,71.33
2023-01-02T05:21:07.572Z,71.48
2023-01-02T05:23:34.262Z,71.95
2023-01-02T05:26:00.589Z,72.10
2023-01-02T05:28:26.889Z,71.91
2023-01-02T05:30:53.420Z,72.09
2023-01-02T05:33:19.732Z,72.11
2023-01-02T05:35:46.123Z,72.16
2023-01-02T05:38:12.443Z,72.02
2023-01-02T05:40:38.864Z,72.01
2023-01-02T05:43:05.148Z,72.36
2023-01-02T05:45:31.479Z,72.54
2023-01-02T05:47:57.948Z,72.28
2023-01-02T05:50:24.259Z,72.14
2023-01-02T05:52:50.573Z,72.09
2023-01-02T05:55:17.066Z,72.97
2023-01-02T05:57:43.376Z,72.70
2023-01-02T06:00:10.353Z,72.70
2023-01-02T06:02:36.786Z,72.69
2023-01-02T06:05:03.480Z,72.59
2023-01-02T06:07:29.936Z,72.91
2023-01-02T06:09:56.323Z,73.24
2023-01-02T06:12:22.680Z,72.84
2023-01-02T06:14:49.020Z,73.47
2023-01-02T06:17:15.318Z,73.24
2023-01-02T06:19:41.660Z,72.83
2023-01-02T06:22:08.072Z,72.81
2023-01-02T06:24:34.524Z,73.21
2023-01-02T06:27:00.994Z,73.23
2023-01-02T06:29:27.269Z,72.44
2023-01-02T06:31:53.626Z,73.11
2023-01-02T06:34:20.175Z,73.08
2023-01-02T06:36:46.621Z,72.47
2023-01-02T06:39:13.038Z,72.38
2023-01-02T06:41:39.330Z,72.59
2023-01-02T06:44:05.704Z,73.12
2023-01-02T06:46:32.178Z,72.50
2023-01-02T06:48:58.473Z,72.16
2023-01-02T06:51:24.855Z,72.83
2023-01-02T06:53:51.484Z,72.95
2023-01-02T06:56:19.897Z,73.00
2023-01-02T06:58:46.615Z,72.86
2023-01-02T07:01:16.528Z,72.32
2023-01-02T07:03:43.590Z,72.75
2023-01-02T07:06:13.480Z,72.37
2023-01-02T07:08:40.505Z,73.05
2023-01-02T07:11:09.600Z,72.80
2023-01-02T07:13:35.907Z,72.56
2023-01-02T07:16:03.968Z,72.58
2023-01-02T07:18:30.289Z,72.78
2023-01-02T07:20:56.595Z,72.36
2023-01-02T07:23:22.930Z,72.26
2023-01-02T07:25:57.464Z,72.82
2023-01-02T07:28:23.910Z,72.43
2023-01-02T07:30:50.671Z,72.73
2023-01-02T07:33:17.372Z,72.74
2023-01-02T07:35:43.676Z,72.11
2023-01-02T07:38:10.761Z,71.59
2023-01-02T07:40:37.170Z,71.88
2023-01-02T07:43:03.493Z,71.40
2023-01-02T07:45:29.908Z,71.87
2023-01-02T07:47:56.206Z,71.48
2023-01-02T07:50:22.531Z,71.63
2023-01-02T07:52:48.872Z,71.48
2023-01-02T07:55:15.435Z,71.16
2023-01-02T07:57:41.741Z,72.29
2023-01-02T08:00:08.798Z,71.22
2023-01-02T08:02:35.225Z,72.40
2023-01-02T08:05:01.619Z,70.46
2023-01-02T08:07:27.975Z,70.30
2023-01-02T08:09:54.334Z,70.74
2023-01-02T08:12:20.738Z,71.09
2023-01-02T08:14:47.034Z,71.10
2023-01-02T08:17:13.387Z,70.76
2023-01-02T08:19:39.728Z,70.32
2023-01-02T08:22:06.132Z,70.55
2023-01-02T08:24:32.476Z,70.76
2023-01-02T08:26:58.774Z,70.47
2023-01-02T08:29:25.191Z,69.65
2023-01-02T08:31:51.523Z,69.21
2023-01-02T08:34:17.906Z,69.85
2023-01-02T08:36:45.265Z,69.54
2023-01-02T08:39:11.677Z,69.49
2023-01-02T08:41:40.089Z,69.33
2023-01-02T08:44:07.398Z,67.61
2023-01-02T08:46:40.313Z,68.16
2023-01-02T08:49:08.931Z,68.41
2023-01-02T08:51:35.242Z,67.88
2023-01-02T08:54:01.687Z,69.09
2023-01-02T08:56:30.451Z,68.24
2023-01-02T08:58:59.302Z,67.63
2023-01-02T09:01:27.718Z,65.84
2023-01-02T09:03:55.008Z,66.01
2023-01-02T09:06:23.610Z,68.08
2023-01-02T09:08:51.613Z,67.15
2023-01-02T09:11:21.632Z,67.83
2023-01-02T09:13:47.940Z,67.42
2023-01-02T09:16:14.357Z,67.07
2023-01-02T09:18:40.767Z,66.22
2023-01-02T09:21:07.416Z,66.79
2023-01-02T09:23:33.994Z,65.96
2023-01-02T09:26:02.317Z,65.34
2023-01-02T09:28:28.774Z,66.02
2023-01-02T09:30:55.413Z,65.31
2023-01-02T09:33:21.994Z,65.57
2023-01-02T09:35:48.430Z,65.41
2023-01-02T09:38:15.405Z,65.75
2023-01-02T09:40:52.312Z,64.77
2023-01-02T09:43:36.105Z,63.79
2023-01-02T09:46:05.297Z,64.01
2023-01-02T09:48:35.559Z,63.87
2023-01-02T09:51:07.715Z,64.42
2023-01-02T09:53:35.116Z,64.19
2023-01-02T09:56:07.053Z,63.55
2023-01-02T09:59:02.063Z,60.88
2023-01-02T10:01:47.086Z,61.45
2023-01-02T10:04:24.616Z,61.29
2023-01-02T10:07:23.480Z,62.56
2023-01-02T10:10:00.429Z,61.45
2023-01-02T10:12:36.617Z,60.04
2023-01-02T10:15:10.659Z,61.51
2023-01-02T10:17:54.484Z,60.63
2023-01-02T10:20:27.198Z,61.32
2023-01-02T10:23:00.860Z,61.37
2023-01-02T10:25:33.879Z,61.16
2023-01-02T10:28:13.721Z,58.53
2023-01-02T10:30:46.565Z,60.01
2023-01-02T10:33:22.959Z,60.14
2023-01-02T10:36:01.163Z,59.35
2023-01-02T10:38:35.587Z,59.44
2023-01-02T10:41:02.691Z,60.50
2023-01-02T10:43:29.205Z,59.50
2023-01-02T10:45:55.643Z,60.42
2023-01-02T10:48:25.003Z,60.41
2023-01-02T10:50:56.395Z,60.65
2023-01-02T10:53:30.501Z,60.52
2023-01-02T10:56:01.713Z,59.23
2023-01-02T10:58:30.081Z,60.50
2023-01-02T11:01:12.288Z,59.76
2023-01-02T11:03:39.842Z,59.29
2023-01-02T11:06:28.216Z,58.75
2023-01-02T11:09:01.236Z,59.37
2023-01-02T11:11:29.574Z,59.37
2023-01-02T11:14:06.019Z,58.27
2023-01-02T11:16:37.837Z,58.13
2023-01-02T11:19:04.488Z,59.24
2023-01-02T11:21:38.776Z,57.86
2023-01-02T11:24:11.028Z,58.03
2023-01-02T11:26:39.609Z,58.15
2023-01-02T11:29:11.284Z,57.81
2023-01-02T11:31:48.725Z,56.51
2023-01-02T11:34:24.035Z,57.00
2023-01-02T11:37:15.495Z,56.96
2023-01-02T11:39:43.030Z,57.20
2023-01-02T11:42:09.383Z,57.52
2023-01-02T11:44:52.533Z,55.11
2023-01-02T11:47:28.122Z,57.06
2023-01-02T11:49:54.860Z,57.37
2023-01-02T11:52:27.558Z,55.76
2023-01-02T11:55:18.749Z,55.70
2023-01-02T11:58:03.556Z,56.20
2023-01-02T12:00:35.717Z,55.00
2023-01-02T12:03:18.135Z,54.51
2023-01-02T12:06:03.373Z,54.45
2023-01-02T12:08:51.577Z,54.34
2023-01-02T12:11:44.583Z,51.97
2023-01-02T12:14:16.748Z,51.62
2023-01-02T12:17:12.706Z,51.74
2023-01-02T12:19:41.841Z,51.07
2023-01-02T12:22:28.424Z,47.47
2023-01-02T12:25:23.534Z,48.42
2023-01-02T12:27:55.090Z,47.85
2023-01-02T12:30:22.412Z,50.45
2023-01-02T12:33:22.396Z,48.40
2023-01-02T12:35:54.606Z,48.23
2023-01-02T12:38:54.197Z,47.99
2023-01-02T12:41:33.547Z,47.14
2023-01-02T12:44:38.522Z,49.31
2023-01-02T12:47:32.346Z,44.56
2023-01-02T12:50:25.652Z,44.56
2023-01-02T12:53:10.022Z,46.46
2023-01-02T12:55:51.401Z,44.67
2023-01-02T12:58:26.705Z,46.44
2023-01-02T13:01:08.558Z,44.39
2023-01-02T13:03:41.466Z,46.08
2023-01-02T13:06:45.086Z,43.90
2023-01-02T13:09:10.797Z,44.93
2023-01-02T13:11:53.036Z,45.73
2023-01-02T13:14:24.691Z,44.20
2023-01-02T13:17:06.624Z,45.00
2023-01-02T13:19:43.355Z,45.01
2023-01-02T13:22:31.380Z,45.19
2023-01-02T13:24:58.632Z,45.83
2023-01-02T13:27:25.375Z,45.48
2023-01-02T13:29:53.167Z,45.79
2023-01-02T13:32:28.143Z,44.89
2023-01-02T13:34:56.320Z,45.88
2023-01-02T13:37:25.755Z,46.21
2023-01-02T13:40:03.656Z,44.83
2023-01-02T13:42:33.601Z,46.85
2023-01-02T13:45:00.244Z,47.30
2023-01-02T13:47:35.662Z,45.85
2023-01-02T13:50:22.342Z,47.63
2023-01-02T13:52:59.711Z,47.51
2023-01-02T13:55:32.559Z,47.79
2023-01-02T13:58:13.936Z,47.17
2023-01-02T14:00:42.745Z,47.57
2023-01-02T14:03:20.911Z,47.17
2023-01-02T14:05:56.588Z,48.24
2023-01-02T14:08:33.029Z,47.81
2023-01-02T14:11:05.452Z,48.73
2023-01-02T14:13:42.144Z,48.11
2023-01-02T14:16:27.262Z,48.61
2023-01-02T14:19:12.229Z,48.46
2023-01-02T14:21:52.696Z,49.08
2023-01-02T14:24:30.059Z,49.51
2023-01-02T14:27:03.591Z,49.72
2023-01-02T14:29:30.760Z,49.71
2023-01-02T14:32:01.300Z,49.00
2023-01-02T14:34:28.073Z,49.15
2023-01-02T14:36:57.500Z,49.82
2023-01-02T14:39:29.110Z,49.78
2023-01-02T14:41:55.509Z,49.98
2023-01-02T14:44:22.313Z,49.88
2023-01-02T14:46:50.314Z,50.15
2023-01-02T14:49:25.842Z,50.16
2023-01-02T14:52:01.836Z,49.86
2023-01-02T14:54:50.697Z,49.84
2023-01-02T14:57:33.396Z,50.12
2023-01-02T15:00:03.106Z,50.50
2023-01-02T15:02:39.872Z,50.58
2023-01-02T15:05:18.163Z,50.51
2023-01-02T15:07:49.221Z,50.56
2023-01-02T15:10:17.787Z,50.64
2023-01-02T15:12:53.124Z,50.96
2023-01-02T15:15:24.608Z,50.96
2023-01-02T15:17:52.248Z,51.35
2023-01-02T15:20:23.887Z,51.71
2023-01-02T15:22:55.537Z,52.18
2023-01-02T15:25:34.071Z,52.39
2023-01-02T15:28:00.719Z,52.25
2023-01-02T15:30:33.547Z,52.75
2023-01-02T15:33:00.141Z,52.48
2023-01-02T15:35:30.616Z,52.80
2023-01-02T15:37:57.119Z,52.24
2023-01-02T15:40:23.375Z,52.83
2023-01-02T15:42:52.514Z,53.10
2023-01-02T15:45:19.032Z,53.36
2023-01-02T15:47:50.815Z,52.89
2023-01-02T15:50:26.495Z,53.28
2023-01-02T15:53:07.390Z,53.29
2023-01-02T15:55:39.614Z,53.47
2023-01-02T15:58:15.245Z,53.67
2023-01-02T16:00:42.911Z,53.65
2023-01-02T16:03:11.091Z,53.98
2023-01-02T16:05:51.064Z,53.97
2023-01-02T16:08:26.900Z,54.47
2023-01-02T16:10:53.510Z,54.48
2023-01-02T16:13:23.837Z,54.68
2023-01-02T16:16:15.429Z,54.53
2023-01-02T16:18:44.480Z,54.88
2023-01-02T16:21:13.933Z,55.32
2023-01-02T16:23:43.938Z,55.15
2023-01-02T16:26:11.563Z,55.58
2023-01-02T16:28:42.525Z,55.31
2023-01-02T16:31:20.897Z,55.79
2023-01-02T16:33:48.006Z,55.88
2023-01-02T16:36:14.284Z,55.66
2023-01-02T16:38:49.453Z,55.84
2023-01-02T16:41:27.861Z,56.19
2023-01-02T16:43:54.289Z,56.29
2023-01-02T16:46:20.652Z,56.19
2023-01-02T16:48:47.021Z,56.81
2023-01-02T16:51:13.940Z,57.30
2023-01-02T16:53:42.691Z,57.16
2023-01-02T16:56:11.057Z,57.41
2023-01-02T16:58:37.515Z,57.26
2023-01-02T17:01:04.393Z,57.52
2023-01-02T17:03:30.829Z,57.82
2023-01-02T17:06:03.727Z,58.25
2023-01-02T17:08:31.485Z,57.61
2023-01-02T17:10:58.231Z,58.53
2023-01-02T17:13:25.228Z,58.29
2023-01-02T17:15:51.557Z,58.88
2023-01-02T17:18:18.005Z,58.28
2023-01-02T17:20:44.372Z,59.73
2023-01-02T17:23:10.825Z,59.34
2023-01-02T17:25:40.267Z,59.86
2023-01-02T17:28:06.878Z,60.37
2023-01-02T17:30:33.222Z,59.48
2023-01-02T17:33:03.913Z,60.02
2023-01-02T17:35:30.842Z,60.06
2023-01-02T17:37:57.192Z,59.37
2023-01-02T17:40:23.529Z,59.87
2023-01-02T17:42:49.811Z,59.48
2023-01-02T17:45:16.211Z,59.74
2023-01-02T17:48:02.635Z,59.89
2023-01-02T17:50:29.253Z,60.35
2023-01-02T17:52:55.568Z,60.59
2023-01-02T17:55:21.858Z,60.92
2023-01-02T17:57:48.143Z,60.98
2023-01-02T18:00:15.111Z,60.93
2023-01-02T18:02:42.143Z,60.63
2023-01-02T18:05:09.532Z,61.17
2023-01-02T18:07:35.843Z,61.50
2023-01-02T18:10:08.647Z,62.58
2023-01-02T18:12:35.947Z,62.35
2023-01-02T18:15:10.188Z,61.96
2023-01-02T18:17:36.544Z,62.32
2023-01-02T18:20:09.180Z,62.76
2023-01-02T18:22:35.567Z,62.96
2023-01-02T18:25:16.383Z,62.90
2023-01-02T18:27:42.874Z,62.89
2023-01-02T18:30:17.308Z,62.94
2023-01-02T18:32:44.200Z,62.57
2023-01-02T18:35:55.445Z,62.42
2023-01-02T18:38:33.389Z,62.62
2023-01-02T18:41:00.202Z,62.51
2023-01-02T18:43:35.773Z,62.90
2023-01-02T18:47:02.233Z,63.20
2023-01-02T18:49:25.002Z,62.69
2023-01-02T18:52:26.202Z,63.41
2023-01-02T18:55:02.123Z,63.05
2023-01-02T18:57:32.461Z,62.97
2023-01-02T19:00:13.142Z,62.58
2023-01-02T19:02:52.216Z,62.61
2023-01-02T19:05:28.541Z,62.74
2023-01-02T19:08:25.127Z,63.16
2023-01-02T19:10:54.492Z,62.45
2023-01-02T19:13:31.458Z,62.43
2023-01-02T19:16:00.129Z,62.13
2023-01-02T19:18:31.276Z,62.52
2023-01-02T19:21:09.255Z,61.89
2023-01-02T19:23:49.428Z,61.95
2023-01-02T19:26:15.783Z,62.29
2023-01-02T19:28:53.815Z,62.41
2023-01-02T19:31:20.931Z,62.69
2023-01-02T19:33:56.000Z,62.62
2023-01-02T19:36:37.748Z,62.38
2023-01-02T19:39:22.793Z,63.04
2023-01-02T19:41:49.211Z,62.50
2023-01-02T19:44:15.528Z,62.97
2023-01-02T19:46:41.842Z,62.50
2023-01-02T19:49:08.199Z,63.20
2023-01-02T19:51:34.503Z,63.18
2023-01-02T19:54:04.190Z,63.45
2023-01-02T19:56:31.217Z,63.26
2023-01-02T19:58:57.506Z,63.57
2023-01-02T20:01:24.081Z,64.20
2023-01-02T20:03:50.439Z,64.24
2023-01-02T20:06:16.800Z,64.04
2023-01-02T20:08:43.215Z,64.15
2023-01-02T20:11:10.061Z,64.29
2023-01-02T20:13:36.415Z,64.64
2023-01-02T20:16:02.827Z,65.20
2023-01-02T20:18:29.137Z,65.21
2023-01-02T20:20:55.467Z,65.78
2023-01-02T20:23:21.769Z,65.49
2023-01-02T20:25:48.180Z,66.24
2023-01-02T20:28:14.485Z,65.85
2023-01-02T20:30:40.776Z,66.07
2023-01-02T20:33:07.112Z,65.86
2023-01-02T20:35:33.572Z,66.35
2023-01-02T20:37:59.988Z,67.03
2023-01-02T20:40:26.337Z,67.31
2023-01-02T20:42:52.753Z,66.98
2023-01-02T20:45:19.159Z,66.39
2023-01-02T20:47:45.470Z,66.92
2023-01-02T20:50:11.787Z,68.01
2023-01-02T20:52:38.216Z,67.57
2023-01-02T20:55:05.040Z,67.29
2023-01-02T20:57:31.364Z,67.89
2023-01-02T20:59:57.957Z,68.85
2023-01-02T21:02:24.640Z,68.21
2023-01-02T21:04:51.378Z,68.21
2023-01-02T21:07:17.723Z,67.85
2023-01-02T21:09:44.087Z,68.13
2023-01-02T21:12:10.526Z,67.58
2023-01-02T21:14:37.875Z,67.80
2023-01-02T21:17:04.320Z,67.88
2023-01-02T21:19:30.749Z,68.25
2023-01-02T21:21:57.112Z,68.40
2023-01-02T21:24:23.417Z,67.69
2023-01-02T21:26:49.786Z,68.79
2023-01-02T21:29:16.217Z,67.78
2023-01-02T21:31:42.648Z,68.33
2023-01-02T21:34:09.011Z,69.01
2023-01-02T21:36:35.335Z,69.10
2023-01-02T21:39:01.795Z,69.07
2023-01-02T21:41:28.091Z,68.94
2023-01-02T21:43:54.525Z,68.63
2023-01-02T21:46:21.336Z,69.20
2023-01-02T21:48:47.669Z,70.11
2023-01-02T21:51:14.079Z,69.58
2023-01-02T21:53:40.504Z,70.25
2023-01-02T21:56:07.248Z,69.85
2023-01-02T21:58:33.547Z,69.37
2023-01-02T22:01:00.015Z,69.21
2023-01-02T22:03:26.550Z,70.07
2023-01-02T22:05:53.017Z,70.04
2023-01-02T22:08:19.384Z,70.02
2023-01-02T22:10:45.670Z,69.10
2023-01-02T22:13:12.159Z,69.07
2023-01-02T22:15:38.490Z,69.14
2023-01-02T22:18:04.839Z,69.46
2023-01-02T22:20:31.199Z,69.45
2023-01-02T22:22:58.264Z,69.60
2023-01-02T22:25:24.735Z,69.61
2023-01-02T22:27:51.021Z,70.16
2023-01-02T22:30:22.071Z,69.50
2023-01-02T22:32:50.894Z,69.44
2023-01-02T22:35:17.526Z,69.50
2023-01-02T22:37:43.872Z,69.39
2023-01-02T22:40:10.863Z,68.56
2023-01-02T22:42:59.703Z,68.82
2023-01-02T22:45:26.517Z,68.62
2023-01-02T22:47:56.360Z,68.67
2023-01-02T22:50:27.810Z,69.34
2023-01-02T22:52:55.171Z,68.97
2023-01-02T22:55:22.968Z,68.13
2023-01-02T22:57:51.780Z,68.49
2023-01-02T23:00:21.274Z,68.70
2023-01-02T23:02:47.708Z,69.38
2023-01-02T23:05:17.422Z,68.57
2023-01-02T23:07:44.813Z,69.20
2023-01-02T23:10:12.165Z,69.31
2023-01-02T23:12:38.970Z,69.72
2023-01-02T23:15:07.672Z,69.81
2023-01-02T23:17:34.043Z,69.88
2023-01-02T23:20:00.402Z,69.40
2023-01-02T23:22:26.738Z,69.09
2023-01-02T23:24:53.060Z,69.44
2023-01-02T23:27:19.447Z,69.14
2023-01-02T23:29:46.469Z,70.03
2023-01-02T23:32:12.954Z,69.34
2023-01-02T23:34:39.809Z,68.51
2023-01-02T23:37:06.219Z,69.32
2023-01-02T23:39:33.896Z,69.74
2023-01-02T23:42:00.993Z,69.74
2023-01-02T23:44:27.779Z,69.78
2023-01-02T23:46:54.557Z,69.78
2023-01-02T23:49:21.104Z,69.83
2023-01-02T23:51:47.472Z,70.07
2023-01-02T23:54:15.372Z,69.95
2023-01-02T23:56:44.133Z,69.65
2023-01-02T23:59:13.637Z,69.87
